createdAt,value
2023-03-22T00:00:59.410Z,0
2023-03-22T00:06:24.472Z,0
2023-03-22T00:11:47.275Z,0
2023-03-22T00:17:09.670Z,0
2023-03-22T00:22:32.357Z,0
2023-03-22T00:27:54.918Z,0
2023-03-22T00:33:23.357Z,0
2023-03-22T00:44:34.279Z,0
2023-03-22T00:49:57.116Z,0
2023-03-22T00:55:19.559Z,0
2023-03-22T01:00:42.992Z,0
2023-03-22T01:11:33.461Z,0
2023-03-22T01:16:56.278Z,0
2023-03-22T01:22:18.749Z,0
2023-03-22T01:27:41.311Z,0
2023-03-22T01:33:03.731Z,0
2023-03-22T01:38:33.785Z,0
2023-03-22T01:43:56.312Z,0
2023-03-22T01:49:18.918Z,0
2023-03-22T01:54:50.424Z,0
2023-03-22T02:00:13.044Z,0
2023-03-22T02:05:35.662Z,0
2023-03-22T02:10:57.891Z,1
2023-03-22T02:16:20.691Z,0
2023-03-22T02:21:43.217Z,1
2023-03-22T02:27:07.813Z,0
2023-03-22T02:32:30.478Z,0
2023-03-22T02:37:55.890Z,0
2023-03-22T02:43:18.324Z,0
2023-03-22T02:48:40.746Z,0
2023-03-22T02:54:03.449Z,2
2023-03-22T02:59:33.700Z,0
2023-03-22T03:04:56.715Z,0
2023-03-22T03:10:19.355Z,0
2023-03-22T03:15:41.959Z,0
2023-03-22T03:21:04.239Z,0
2023-03-22T03:26:26.809Z,0
2023-03-22T03:31:52.856Z,0
2023-03-22T03:42:49.627Z,0
2023-03-22T03:48:12.511Z,0
2023-03-22T03:53:35.192Z,0
2023-03-22T03:59:00.767Z,0
2023-03-22T04:04:23.601Z,0
2023-03-22T04:09:45.946Z,0
2023-03-22T04:15:08.499Z,0
2023-03-22T04:20:48.294Z,0
2023-03-22T04:26:10.931Z,0
2023-03-22T04:31:33.485Z,0
2023-03-22T04:36:55.684Z,0
2023-03-22T04:42:21.018Z,0
2023-03-22T04:47:46.135Z,0
2023-03-22T04:53:11.958Z,0
2023-03-22T04:58:34.703Z,0
2023-03-22T05:09:27.028Z,0
2023-03-22T05:14:49.766Z,0
2023-03-22T05:20:12.486Z,0
2023-03-22T05:25:35.130Z,1
2023-03-22T05:30:57.715Z,10
2023-03-22T05:36:20.272Z,21
2023-03-22T05:41:42.978Z,29.7
2023-03-22T05:47:05.518Z,33.3
2023-03-22T05:52:27.916Z,52.3
2023-03-22T05:57:50.660Z,72.1
2023-03-22T06:03:17.333Z,98.6
2023-03-22T06:08:40.009Z,122.9
2023-03-22T06:14:02.844Z,110.8
2023-03-22T06:19:25.257Z,125.9
2023-03-22T06:24:48.129Z,200.2
2023-03-22T06:30:10.613Z,248.5
2023-03-22T06:35:33.723Z,272.5
2023-03-22T06:40:56.437Z,230.4
2023-03-22T06:46:33.482Z,263.8
2023-03-22T06:51:56.586Z,360.9
2023-03-22T06:57:19.444Z,339.1
2023-03-22T07:02:44.276Z,174.3
2023-03-22T07:08:06.598Z,141.2
2023-03-22T07:13:32.020Z,188.8
2023-03-22T07:19:06.577Z,306.1
2023-03-22T07:24:29.517Z,350
2023-03-22T07:29:51.921Z,374
2023-03-22T07:35:14.495Z,504.4
2023-03-22T07:40:43.521Z,431.4
2023-03-22T07:46:05.954Z,274.3
2023-03-22T07:51:28.414Z,221.9
2023-03-22T07:56:51.260Z,237.8
2023-03-22T08:02:14.103Z,419.1
2023-03-22T08:07:41.820Z,626.7
2023-03-22T08:13:05.202Z,638
2023-03-22T08:18:27.522Z,383.8
2023-03-22T08:23:50.331Z,277.1
2023-03-22T08:29:12.907Z,324.7
2023-03-22T08:34:37.843Z,338.9
2023-03-22T08:40:01.486Z,467.3
2023-03-22T08:45:26.490Z,600.8
2023-03-22T08:50:52.690Z,648.9
2023-03-22T08:56:15.045Z,644.6
2023-03-22T09:06:51.437Z,489.9
2023-03-22T09:12:13.637Z,431.1
2023-03-22T09:17:36.186Z,358.5
2023-03-22T09:22:58.768Z,425.2
2023-03-22T09:28:43.106Z,371.9
2023-03-22T09:34:10.630Z,531.1
2023-03-22T09:39:33.586Z,674.6
2023-03-22T09:44:56.804Z,1424
2023-03-22T09:50:20.802Z,2016.6
2023-03-22T09:55:44.115Z,1903.2
2023-03-22T10:01:07.207Z,1180.2
2023-03-22T10:06:38.913Z,787
2023-03-22T10:12:04.287Z,721
2023-03-22T10:17:26.970Z,840.7
2023-03-22T10:22:56.418Z,795.4
2023-03-22T10:28:18.846Z,722.8
2023-03-22T10:33:44.780Z,672.4
2023-03-22T10:39:07.280Z,791.6
2023-03-22T10:44:41.944Z,864.2
2023-03-22T10:50:10.569Z,926.5
2023-03-22T11:01:15.668Z,802.4
2023-03-22T11:06:38.293Z,646.5
2023-03-22T11:12:00.711Z,650.5
2023-03-22T11:17:23.410Z,735.5
2023-03-22T11:22:46.573Z,876.4
2023-03-22T11:28:12.819Z,837.9
2023-03-22T11:33:35.504Z,884.8
2023-03-22T11:39:11.048Z,793.7
2023-03-22T11:50:07.307Z,876.3
2023-03-22T11:55:31.897Z,922.6
2023-03-22T12:00:54.572Z,967.9
2023-03-22T12:06:17.560Z,761.4
2023-03-22T12:11:39.922Z,589
2023-03-22T12:17:02.045Z,460.7
2023-03-22T12:22:33.325Z,524.1
2023-03-22T12:27:56.150Z,469.4
2023-03-22T12:38:44.685Z,453.4
2023-03-22T12:44:07.134Z,720.6
2023-03-22T12:49:29.913Z,717.8
2023-03-22T12:54:52.649Z,699.8
2023-03-22T13:00:15.291Z,707
2023-03-22T13:05:55.750Z,712.3
2023-03-22T13:11:18.348Z,647.2
2023-03-22T13:17:04.639Z,507.3
2023-03-22T13:22:27.276Z,388.3
2023-03-22T13:27:49.524Z,475.1
2023-03-22T13:33:12.688Z,496.8
2023-03-22T13:38:51.892Z,433.6
2023-03-22T13:44:14.436Z,323.2
2023-03-22T13:49:36.673Z,247.8
2023-03-22T13:55:07.793Z,268.9
2023-03-22T14:00:30.464Z,280
2023-03-22T14:05:57.100Z,387.5
2023-03-22T14:11:23.365Z,436.1
2023-03-22T14:16:46.161Z,450.8
2023-03-22T14:49:07.183Z,530.7
2023-03-22T14:54:29.713Z,485.3
2023-03-22T14:59:52.639Z,543.1
2023-03-22T15:05:15.867Z,459.7
2023-03-22T15:10:38.370Z,340.4
2023-03-22T15:16:03.839Z,282
2023-03-22T15:21:26.860Z,246
2023-03-22T15:26:49.554Z,271.9
2023-03-22T15:32:19.318Z,335.8
2023-03-22T15:37:42.677Z,358.4
2023-03-22T15:43:05.035Z,341.4
2023-03-22T15:48:27.529Z,310
2023-03-22T15:53:50.506Z,277.3
2023-03-22T15:59:13.005Z,296.6
2023-03-22T16:04:35.541Z,235.3
2023-03-22T16:09:58.061Z,237.2
2023-03-22T16:15:21.454Z,244.5
2023-03-22T16:20:44.077Z,214.4
2023-03-22T16:26:15.897Z,197.8
2023-03-22T16:31:56.070Z,130.9
2023-03-22T16:37:19.022Z,85.3
2023-03-22T16:42:42.028Z,83.3
2023-03-22T16:48:04.506Z,88
2023-03-22T16:53:49.333Z,95.7
2023-03-22T16:59:11.968Z,63.6
2023-03-22T17:04:34.763Z,61.7
2023-03-22T17:09:57.741Z,56.2
2023-03-22T17:15:20.608Z,33.5
2023-03-22T17:26:08.667Z,24
2023-03-22T17:31:31.690Z,17
2023-03-22T17:37:02.214Z,13
2023-03-22T17:42:25.077Z,7
2023-03-22T17:47:49.782Z,1
2023-03-22T17:59:39.613Z,0
2023-03-22T18:05:02.290Z,0
2023-03-22T18:10:24.458Z,0
2023-03-22T18:15:47.204Z,0
2023-03-22T18:21:11.008Z,0
2023-03-22T18:27:05.127Z,0
2023-03-22T18:33:06.278Z,0
2023-03-22T18:59:51.889Z,0
2023-03-22T19:05:14.100Z,0
2023-03-22T19:10:48.799Z,0
2023-03-22T19:16:11.540Z,0
2023-03-22T19:21:37.213Z,0
2023-03-22T19:33:50.104Z,0
2023-03-22T19:39:18.469Z,0
2023-03-22T19:44:40.901Z,0
2023-03-22T19:50:10.860Z,0
2023-03-22T19:55:34.414Z,0
2023-03-22T20:00:59.925Z,0
2023-03-22T20:06:22.741Z,0
2023-03-22T20:11:45.515Z,2
2023-03-22T20:17:26.297Z,0
2023-03-22T20:22:49.393Z,0
2023-03-22T20:28:11.828Z,0
2023-03-22T20:33:36.446Z,0
2023-03-22T20:38:59.513Z,0
2023-03-22T20:44:22.318Z,0
2023-03-22T20:49:44.987Z,0
2023-03-22T20:55:07.768Z,0
2023-03-22T21:00:30.235Z,0
2023-03-22T21:05:53.779Z,0
2023-03-22T21:16:48.414Z,0
2023-03-22T21:22:14.425Z,0
2023-03-22T21:27:37.315Z,2
2023-03-22T21:32:59.824Z,0
2023-03-22T21:38:22.760Z,0
2023-03-22T21:43:45.739Z,0
2023-03-22T21:49:08.455Z,0
2023-03-22T21:54:40.248Z,0
2023-03-22T22:00:03.146Z,0
2023-03-22T22:05:33.592Z,0
2023-03-22T22:10:56.424Z,1
2023-03-22T22:16:18.945Z,0
2023-03-22T22:22:05.065Z,0
2023-03-22T22:28:28.745Z,0
2023-03-22T22:33:51.736Z,0
2023-03-22T22:39:16.466Z,0
2023-03-22T22:44:39.077Z,0
2023-03-22T22:50:01.688Z,0
2023-03-22T22:55:45.885Z,0
2023-03-22T23:01:08.960Z,0
2023-03-22T23:06:31.356Z,0
2023-03-22T23:17:19.259Z,0
2023-03-22T23:22:44.547Z,0
2023-03-22T23:28:12.776Z,0
2023-03-22T23:33:35.883Z,0
2023-03-22T23:38:58.816Z,0
2023-03-22T23:44:21.724Z,0
2023-03-22T23:49:44.664Z,0
2023-03-22T23:55:10.239Z,0
